Time;durP1;ratioP1;P1;durP2;ratioP2;P2;SDS_P1;SDS_P2;PMS_P1;PMS_P2;Temp;Humidity;BMP_temperature;BMP_pressure;BME280_temperature;BME280_humidity;BME280_pressure;Samples;Min_cycle;Max_cycle;Signal;HPM_P1;HPM_P2
2021/01/26 00:01:09;;;;;;;41.77;30.47;;;;;;;0.17;86.13;99741.88;5034358;28;20517;-73
2021/01/26 00:03:34;;;;;;;37.13;23.73;;;;;;;0.17;86.50;99741.88;5034210;28;20263;-73
2021/01/26 00:06:00;;;;;;;41.37;31.40;;;;;;;0.17;86.51;99729.25;5034230;28;20179;-73
2021/01/26 00:08:25;;;;;;;15.17;13.60;;;;;;;0.19;86.78;99729.00;5033936;28;20225;-73
2021/01/26 00:10:51;;;;;;;39.03;29.50;;;;;;;0.18;86.55;99733.56;5034214;28;20382;-72
2021/01/26 00:13:17;;;;;;;38.00;27.07;;;;;;;0.18;86.75;99733.56;5033609;28;20212;-73
2021/01/26 00:15:43;;;;;;;47.63;29.40;;;;;;;0.19;86.55;99723.63;5032799;28;20195;-73
2021/01/26 00:18:08;;;;;;;32.57;22.97;;;;;;;0.19;86.55;99729.00;5033507;28;20770;-73
2021/01/26 00:20:34;;;;;;;32.43;25.63;;;;;;;0.18;86.36;99724.69;5034028;28;20183;-72
2021/01/26 00:23:00;;;;;;;36.27;29.23;;;;;;;0.17;86.39;99725.78;5033993;28;20176;-73
2021/01/26 00:25:33;;;;;;;29.03;24.20;;;;;;;0.17;86.86;99721.22;5034078;28;20179;-73
2021/01/26 00:27:58;;;;;;;37.97;28.43;;;;;;;0.16;87.40;99716.91;5033441;28;20282;-73
2021/01/26 00:30:28;;;;;;;22.10;17.43;;;;;;;0.19;86.82;99716.38;5033801;28;20549;-73
2021/01/26 00:32:54;;;;;;;26.17;14.40;;;;;;;0.20;86.57;99718.00;5033599;28;20180;-73
2021/01/26 00:35:23;;;;;;;14.97;12.43;;;;;;;0.20;86.29;99725.25;5033820;28;20418;-73
2021/01/26 00:37:49;;;;;;;25.50;19.90;;;;;;;0.18;86.42;99722.00;5033207;28;20415;-73
2021/01/26 00:40:16;;;;;;;29.40;25.27;;;;;;;0.17;86.51;99720.41;5032480;28;20430;-73
2021/01/26 00:42:42;;;;;;;33.83;26.73;;;;;;;0.18;86.19;99717.44;5033507;28;20914;-73
2021/01/26 00:45:08;;;;;;;14.93;13.23;;;;;;;0.20;86.04;99719.88;5032249;28;20440;-73
2021/01/26 00:47:33;;;;;;;30.63;22.60;;;;;;;0.18;86.28;99712.06;5033505;28;20562;-73
2021/01/26 00:49:59;;;;;;;36.57;26.97;;;;;;;0.20;86.26;99719.88;5033583;28;20480;-73
2021/01/26 00:52:24;;;;;;;32.83;25.83;;;;;;;0.21;86.09;99716.13;5033307;28;20267;-73
2021/01/26 00:54:50;;;;;;;27.17;19.47;;;;;;;0.25;85.68;99709.16;5033288;28;20183;-73
2021/01/26 00:57:19;;;;;;;31.57;24.43;;;;;;;0.26;85.68;99719.63;5031894;28;20592;-73
2021/01/26 00:59:46;;;;;;;20.67;18.13;;;;;;;0.29;84.83;99707.56;5032967;28;20172;-73
2021/01/26 01:02:12;;;;;;;24.60;22.10;;;;;;;0.29;84.88;99699.50;5033118;28;20480;-73
2021/01/26 01:04:37;;;;;;;20.37;18.37;;;;;;;0.32;84.58;99706.22;5033141;28;20422;-74
2021/01/26 01:07:02;;;;;;;23.93;19.43;;;;;;;0.31;84.80;99705.44;5032828;28;20258;-73
2021/01/26 01:09:27;;;;;;;22.03;19.93;;;;;;;0.31;84.64;99696.56;5033235;28;20199;-73
2021/01/26 01:11:53;;;;;;;21.47;19.30;;;;;;;0.32;84.64;99701.66;5032573;28;20190;-73
2021/01/26 01:14:18;;;;;;;23.93;17.30;;;;;;;0.34;84.25;99693.34;5033078;28;20576;-73
2021/01/26 01:16:45;;;;;;;11.83;10.63;;;;;;;0.37;84.22;99690.94;5031519;28;20216;-73
2021/01/26 01:19:10;;;;;;;15.73;14.07;;;;;;;0.39;84.06;99688.78;5033085;28;20175;-73
2021/01/26 01:21:36;;;;;;;21.10;17.67;;;;;;;0.38;84.49;99689.06;5033017;28;20949;-73
2021/01/26 01:24:01;;;;;;;8.23;7.13;;;;;;;0.40;84.39;99690.41;5032961;28;20168;-73
2021/01/26 01:26:26;;;;;;;14.93;13.37;;;;;;;0.41;84.74;99694.69;5031280;28;20242;-73
2021/01/26 01:28:52;;;;;;;11.37;7.97;;;;;;;0.28;86.98;99693.31;5032723;28;20180;-73
2021/01/26 01:31:17;;;;;;;13.70;10.97;;;;;;;0.20;87.81;99696.50;5033029;28;20164;-73
2021/01/26 01:33:42;;;;;;;26.03;20.90;;;;;;;0.14;88.74;99694.84;5032601;28;20183;-73
2021/01/26 01:36:08;;;;;;;14.83;13.23;;;;;;;0.12;89.34;99686.25;5032523;28;20168;-74
2021/01/26 01:38:33;;;;;;;31.23;22.97;;;;;;;0.08;90.47;99692.41;5031095;28;20291;-73
2021/01/26 01:40:59;;;;;;;28.63;22.97;;;;;;;0.11;90.81;99689.19;5032675;28;20176;-73
2021/01/26 01:43:24;;;;;;;23.40;18.17;;;;;;;0.08;90.75;99682.47;5032444;28;20180;-73
2021/01/26 01:45:49;;;;;;;18.33;16.23;;;;;;;0.08;91.17;99687.03;5032249;28;20785;-73
2021/01/26 01:48:20;;;;;;;19.87;17.87;;;;;;;0.06;91.29;99681.94;5032015;28;20218;-73
2021/01/26 01:50:53;;;;;;;25.37;22.00;;;;;;;0.05;90.97;99679.50;5032146;28;20246;-73
2021/01/26 01:53:31;;;;;;;22.27;12.07;;;;;;;0.07;90.53;99672.81;5032356;28;20808;-73
2021/01/26 01:56:05;;;;;;;24.73;20.63;;;;;;;0.11;90.73;99679.25;5030748;28;20419;-73
2021/01/26 01:58:37;;;;;;;34.97;24.67;;;;;;;0.07;90.65;99667.44;5031912;28;20513;-74
2021/01/26 02:01:08;;;;;;;19.53;15.80;;;;;;;0.10;90.50;99669.59;5030808;28;20414;-73
2021/01/26 02:03:39;;;;;;;26.67;22.20;;;;;;;0.11;90.36;99667.72;5012352;28;20459;-73
2021/01/26 02:06:04;;;;;;;24.77;21.60;;;;;;;0.15;90.44;99669.63;5012024;28;20429;-73
2021/01/26 02:08:51;;;;;;;26.30;22.67;;;;;;;0.07;90.53;99669.31;5011844;28;20416;-72
2021/01/26 02:11:20;;;;;;;24.67;22.03;;;;;;;0.06;90.04;99654.28;5011407;28;20200;-73
2021/01/26 02:13:46;;;;;;;24.07;20.87;;;;;;;0.14;89.59;99661.81;5012245;28;20418;-73
2021/01/26 02:16:34;;;;;;;24.47;21.23;;;;;;;0.17;89.49;99664.00;5011623;28;20470;-73
2021/01/26 02:19:26;;;;;;;9.83;8.93;;;;;;;0.14;89.10;99657.25;5008410;28;20477;-73
2021/01/26 02:22:37;;;;;;;19.70;17.67;;;;;;;0.13;89.09;99654.81;5012309;28;20430;-73
2021/01/26 02:25:05;;;;;;;18.40;15.57;;;;;;;0.10;89.67;99658.03;5011922;28;20425;-73
2021/01/26 02:28:17;;;;;;;22.43;20.30;;;;;;;-0.02;89.32;99652.88;5011372;28;20427;-73
2021/01/26 02:30:52;;;;;;;18.83;17.13;;;;;;;0.04;89.97;99659.09;5011889;28;20467;-72
2021/01/26 02:33:56;;;;;;;22.23;18.70;;;;;;;0.02;88.83;99654.00;5011916;28;20888;-73
2021/01/26 02:36:36;;;;;;;19.83;17.83;;;;;;;-0.03;89.71;99662.81;5011575;28;20912;-73
2021/01/26 02:39:25;;;;;;;24.40;21.67;;;;;;;-0.13;89.86;99652.03;5011771;28;20412;-73
2021/01/26 02:42:12;;;;;;;22.43;16.10;;;;;;;-0.06;90.29;99654.47;5011484;28;20530;-73
2021/01/26 02:45:07;;;;;;;21.80;19.80;;;;;;;-0.04;90.40;99653.16;5011813;28;20416;-73
2021/01/26 02:48:00;;;;;;;21.27;18.50;;;;;;;0.02;90.57;99659.38;5011047;28;21027;-73
2021/01/26 02:50:46;;;;;;;14.43;12.97;;;;;;;-0.01;90.34;99652.63;5011325;28;20818;-73
2021/01/26 02:54:03;;;;;;;23.53;21.33;;;;;;;-0.02;90.19;99652.88;5011601;28;20441;-73
2021/01/26 02:56:41;;;;;;;21.73;19.50;;;;;;;0.01;90.00;99651.56;4988681;28;20450;-73
2021/01/26 02:59:39;;;;;;;21.47;16.90;;;;;;;0.04;89.81;99648.38;4972793;28;20502;-73
2021/01/26 03:02:13;;;;;;;22.57;20.40;;;;;;;-0.05;89.95;99648.84;5008326;28;20437;-73
2021/01/26 03:04:57;;;;;;;22.80;20.03;;;;;;;0.02;89.75;99647.81;5011206;28;20470;-73
2021/01/26 03:07:27;;;;;;;25.90;21.53;;;;;;;0.05;89.34;99648.09;5010814;28;20415;-73
2021/01/26 03:09:59;;;;;;;23.17;20.93;;;;;;;0.13;89.49;99644.91;5011043;28;20459;-73
2021/01/26 03:12:30;;;;;;;23.03;20.50;;;;;;;0.17;88.96;99650.56;5010215;28;20412;-73
2021/01/26 03:15:03;;;;;;;24.90;22.50;;;;;;;0.12;89.30;99653.22;5011076;28;20435;-73
2021/01/26 03:17:34;;;;;;;21.40;19.20;;;;;;;0.19;89.50;99651.91;5010859;28;20821;-74
2021/01/26 03:20:06;;;;;;;22.80;20.87;;;;;;;0.09;89.92;99646.50;5010434;28;20840;-73
2021/01/26 03:22:33;;;;;;;20.50;18.57;;;;;;;0.15;89.88;99644.66;5010971;28;20415;-73
2021/01/26 03:25:05;;;;;;;24.23;21.57;;;;;;;0.17;89.92;99645.19;5011167;28;20442;-73
2021/01/26 03:27:35;;;;;;;24.77;22.17;;;;;;;0.11;90.28;99647.03;5010664;28;20411;-73
2021/01/26 03:30:03;;;;;;;8.50;7.80;;;;;;;0.09;90.90;99640.31;5010775;28;20982;-72
2021/01/26 03:32:34;;;;;;;25.80;21.93;;;;;;;0.06;91.70;99651.59;5010618;28;20431;-73
2021/01/26 03:35:00;;;;;;;25.30;22.27;;;;;;;0.00;91.73;99645.41;5009899;28;20415;-73
2021/01/26 03:37:26;;;;;;;9.50;8.63;;;;;;;-0.01;91.96;99649.94;5010904;28;20411;-73
2021/01/26 03:39:52;;;;;;;30.80;23.70;;;;;;;-0.08;92.25;99645.88;5009502;28;20800;-73
2021/01/26 03:42:18;;;;;;;27.93;24.27;;;;;;;-0.12;92.97;99644.81;5010633;28;20694;-73
2021/01/26 03:44:46;;;;;;;30.67;24.57;;;;;;;-0.15;93.74;99648.78;5010854;28;20412;-72
2021/01/26 03:47:32;;;;;;;28.57;24.57;;;;;;;-0.16;93.70;99639.13;5010275;28;20172;-73
2021/01/26 03:50:10;;;;;;;31.37;25.43;;;;;;;-0.20;94.01;99646.09;5010185;28;20451;-73
2021/01/26 03:53:03;;;;;;;31.67;25.40;;;;;;;-0.26;94.87;99632.91;5009938;28;20442;-73
2021/01/26 03:55:29;;;;;;;37.87;26.47;;;;;;;-0.17;94.64;99640.19;5011148;28;20435;-74
2021/01/26 03:58:12;;;;;;;31.30;25.47;;;;;;;-0.14;95.01;99636.19;5015111;28;20702;-73
2021/01/26 04:00:49;;;;;;;33.07;26.80;;;;;;;-0.16;95.22;99630.25;5016776;28;20432;-73
2021/01/26 04:03:30;;;;;;;32.67;25.20;;;;;;;-0.04;94.52;99633.53;5010553;28;20835;-74
2021/01/26 04:05:59;;;;;;;31.57;26.97;;;;;;;-0.08;94.35;99633.28;5011229;28;20400;-74
2021/01/26 04:08:42;;;;;;;37.50;29.97;;;;;;;-0.09;95.16;99626.28;5009332;28;20439;-73
2021/01/26 04:11:07;;;;;;;30.83;26.10;;;;;;;-0.10;94.39;99635.41;5010650;28;20455;-73
2021/01/26 04:13:43;;;;;;;68.67;40.97;;;;;;;-0.15;94.49;99634.56;5010077;28;20419;-73
2021/01/26 04:16:12;;;;;;;42.17;29.63;;;;;;;-0.33;94.58;99635.81;5010483;28;20219;-74
2021/01/26 04:18:41;;;;;;;36.87;28.33;;;;;;;-0.31;94.87;99634.47;5010422;28;20415;-73
2021/01/26 04:21:08;;;;;;;38.00;32.63;;;;;;;-0.28;95.10;99635.06;5009228;28;20423;-74
2021/01/26 04:23:34;;;;;;;42.97;35.40;;;;;;;-0.20;94.42;99639.91;5027678;28;20411;-74
2021/01/26 04:26:13;;;;;;;35.47;29.40;;;;;;;-0.26;94.66;99631.03;5029966;28;20808;-74
2021/01/26 04:28:42;;;;;;;30.27;26.73;;;;;;;-0.22;95.16;99637.50;5030303;28;20524;-73
2021/01/26 04:31:10;;;;;;;31.57;27.27;;;;;;;-0.26;95.36;99643.66;5030364;28;20497;-73
2021/01/26 04:33:35;;;;;;;31.03;25.80;;;;;;;-0.23;95.18;99643.13;5032429;28;20425;-73
2021/01/26 04:36:02;;;;;;;29.40;26.13;;;;;;;-0.29;94.82;99636.91;5033771;28;20783;-73
2021/01/26 04:38:28;;;;;;;26.00;22.07;;;;;;;-0.26;94.91;99638.28;5033317;28;20314;-74
2021/01/26 04:40:57;;;;;;;26.90;23.90;;;;;;;-0.20;95.03;99639.91;5033684;28;20881;-74
2021/01/26 04:43:37;;;;;;;26.70;23.97;;;;;;;-0.19;95.06;99642.34;5032273;28;20656;-73
2021/01/26 04:46:08;;;;;;;29.67;24.30;;;;;;;-0.24;94.74;99647.69;5033582;28;20551;-74
2021/01/26 04:48:53;;;;;;;27.50;24.77;;;;;;;-0.22;94.84;99642.84;5033866;28;20501;-73
2021/01/26 04:51:36;;;;;;;23.63;20.47;;;;;;;-0.20;94.70;99643.41;5033371;28;20551;-74
2021/01/26 04:54:49;;;;;;;15.80;14.13;;;;;;;-0.18;94.97;99649.31;5033479;28;21210;-73
2021/01/26 04:57:44;;;;;;;25.60;22.90;;;;;;;-0.26;94.55;99641.78;5010069;28;20513;-73
2021/01/26 05:00:20;;;;;;;26.60;23.20;;;;;;;-0.32;94.45;99648.97;5033455;28;20418;-74
2021/01/26 05:03:03;;;;;;;25.07;22.37;;;;;;;-0.21;94.86;99647.16;5033262;28;20439;-74
2021/01/26 05:05:34;;;;;;;29.30;25.17;;;;;;;-0.21;94.81;99646.34;5033318;28;20414;-74
2021/01/26 05:08:08;;;;;;;25.40;22.97;;;;;;;-0.19;94.61;99652.25;5032885;28;20423;-73
2021/01/26 05:10:48;;;;;;;23.73;21.23;;;;;;;-0.13;94.45;99659.28;5033129;28;20470;-73
2021/01/26 05:13:25;;;;;;;23.43;21.03;;;;;;;-0.16;94.78;99657.09;5032449;28;20426;-73
2021/01/26 05:16:05;;;;;;;24.13;21.63;;;;;;;-0.11;94.55;99659.84;5032917;28;20418;-73
2021/01/26 05:18:53;;;;;;;20.60;18.70;;;;;;;-0.09;94.45;99657.69;5033079;28;20809;-73
2021/01/26 05:21:35;;;;;;;22.30;20.20;;;;;;;-0.13;94.47;99657.41;5033066;28;20484;-73
2021/01/26 05:24:11;;;;;;;21.00;19.20;;;;;;;-0.13;94.47;99656.59;5032936;28;20407;-74
2021/01/26 05:26:37;;;;;;;18.40;16.80;;;;;;;-0.09;94.15;99660.38;5032445;28;20418;-74
2021/01/26 05:29:02;;;;;;;10.07;8.97;;;;;;;-0.05;94.53;99664.16;5032840;28;20427;-73
2021/01/26 05:31:28;;;;;;;12.17;11.03;;;;;;;-0.10;94.27;99659.56;5032816;28;20199;-73
2021/01/26 05:34:09;;;;;;;10.07;9.17;;;;;;;-0.13;94.56;99662.78;5032933;28;20301;-73
2021/01/26 05:36:35;;;;;;;9.03;8.27;;;;;;;-0.15;94.49;99666.78;5032444;28;20397;-73
2021/01/26 05:39:05;;;;;;;16.20;14.70;;;;;;;-0.16;94.49;99670.53;5032545;28;20448;-74
2021/01/26 05:41:31;;;;;;;15.70;14.40;;;;;;;-0.16;94.81;99671.34;5032720;28;20783;-73
2021/01/26 05:43:59;;;;;;;15.03;13.37;;;;;;;-0.14;95.10;99676.47;5031889;28;20426;-73
2021/01/26 05:46:35;;;;;;;10.23;9.07;;;;;;;-0.13;94.72;99678.09;5032019;28;20298;-73
2021/01/26 05:49:01;;;;;;;15.63;14.13;;;;;;;-0.12;95.14;99683.19;5031140;28;20418;-74
2021/01/26 05:51:28;;;;;;;13.77;12.47;;;;;;;-0.09;95.08;99689.91;5032021;28;20481;-74
2021/01/26 05:54:00;;;;;;;7.23;4.50;;;;;;;-0.05;95.07;99689.13;5032307;28;20175;-73
2021/01/26 05:56:27;;;;;;;12.60;11.50;;;;;;;-0.03;95.29;99697.72;5031898;28;20960;-73
2021/01/26 05:58:52;;;;;;;4.43;3.73;;;;;;;-0.02;95.77;99699.34;5032318;28;20417;-73
2021/01/26 06:01:34;;;;;;;11.70;10.70;;;;;;;0.02;95.44;99702.31;5032259;28;20509;-73
2021/01/26 06:04:14;;;;;;;11.63;9.63;;;;;;;0.05;95.84;99706.38;5032148;28;20605;-73
2021/01/26 06:06:58;;;;;;;13.40;12.13;;;;;;;0.09;95.76;99713.63;5030494;28;20430;-73
2021/01/26 06:09:27;;;;;;;12.93;11.83;;;;;;;0.11;95.63;99713.38;5031985;28;20469;-73
2021/01/26 06:12:12;;;;;;;13.20;12.03;;;;;;;0.11;95.79;99713.38;5031387;28;20449;-74
2021/01/26 06:14:39;;;;;;;11.23;10.23;;;;;;;0.09;95.95;99723.56;5031991;28;20411;-73
2021/01/26 06:17:07;;;;;;;7.63;6.93;;;;;;;0.06;95.63;99726.78;5031585;28;20906;-73
2021/01/26 06:19:32;;;;;;;13.73;12.60;;;;;;;0.07;96.00;99731.88;5031922;28;20422;-73
2021/01/26 06:21:58;;;;;;;14.17;12.97;;;;;;;0.09;95.76;99732.44;5031817;28;20419;-73
2021/01/26 06:24:27;;;;;;;14.90;13.37;;;;;;;0.12;95.72;99745.31;5031736;28;20172;-73
2021/01/26 06:27:08;;;;;;;14.53;13.23;;;;;;;0.12;95.63;99748.00;5027075;28;20637;-74
2021/01/26 06:29:37;;;;;;;13.43;12.23;;;;;;;0.13;95.87;99749.63;5011872;28;20492;-73
2021/01/26 06:32:28;;;;;;;12.20;11.10;;;;;;;0.11;95.64;99764.38;5011861;28;20434;-73
2021/01/26 06:35:09;;;;;;;6.43;5.83;;;;;;;0.09;95.71;99755.78;5011735;28;20431;-74
2021/01/26 06:38:05;;;;;;;7.30;6.70;;;;;;;0.05;96.32;99766.25;5011593;28;20892;-74
2021/01/26 06:41:00;;;;;;;9.83;8.83;;;;;;;0.02;96.60;99774.81;5011825;28;20475;-74
2021/01/26 06:44:06;;;;;;;6.93;6.23;;;;;;;-0.01;96.31;99778.81;5011691;28;20474;-74
2021/01/26 06:46:39;;;;;;;12.23;10.37;;;;;;;-0.01;96.69;99778.81;5010079;28;20450;-74
2021/01/26 06:49:34;;;;;;;5.57;5.10;;;;;;;0.03;96.53;99781.00;5011639;28;20919;-74
2021/01/26 06:52:03;;;;;;;6.30;5.77;;;;;;;-0.03;96.96;99783.63;5011198;28;20926;-74
2021/01/26 06:55:11;;;;;;;19.63;17.73;;;;;;;-0.01;96.73;99794.91;5011001;28;20543;-74
2021/01/26 06:58:04;;;;;;;12.73;11.60;;;;;;;0.05;96.99;99797.66;5000471;28;20927;-74
2021/01/26 07:00:37;;;;;;;22.07;19.13;;;;;;;0.07;96.95;99806.25;5010001;28;20442;-74
2021/01/26 07:03:20;;;;;;;21.23;18.50;;;;;;;0.06;96.56;99815.38;5011361;28;20450;-74
2021/01/26 07:05:49;;;;;;;19.77;17.77;;;;;;;0.06;96.90;99821.56;5011057;28;21038;-74
2021/01/26 07:08:43;;;;;;;11.60;9.67;;;;;;;0.06;96.96;99826.94;5010881;28;20589;-74
2021/01/26 07:11:40;;;;;;;16.67;13.60;;;;;;;0.03;96.97;99840.88;5010862;28;20475;-73
2021/01/26 07:14:20;;;;;;;13.70;12.27;;;;;;;-0.01;96.81;99848.63;5011062;28;20416;-74
2021/01/26 07:16:48;;;;;;;19.77;16.20;;;;;;;-0.02;96.71;99855.06;5010590;28;20452;-73
2021/01/26 07:19:44;;;;;;;31.67;21.60;;;;;;;-0.02;97.01;99856.94;5011027;28;20420;-74
2021/01/26 07:22:54;;;;;;;28.80;22.23;;;;;;;0.01;97.28;99861.81;5010940;28;20412;-74
2021/01/26 07:25:24;;;;;;;28.87;21.13;;;;;;;0.03;97.08;99869.63;5002324;28;20431;-73
2021/01/26 07:28:11;;;;;;;33.83;23.03;;;;;;;0.03;97.37;99880.34;5010760;28;20427;-73
2021/01/26 07:30:40;;;;;;;27.20;21.77;;;;;;;0.04;97.19;99880.09;5010955;28;20461;-73
2021/01/26 07:33:48;;;;;;;28.37;22.83;;;;;;;0.08;97.13;99899.19;5010950;28;20766;-73
2021/01/26 07:36:20;;;;;;;27.17;20.60;;;;;;;0.09;96.99;99908.84;5004662;28;20419;-73
2021/01/26 07:39:10;;;;;;;33.90;24.30;;;;;;;0.11;97.50;99912.09;5025917;28;20845;-72
2021/01/26 07:41:48;;;;;;;31.23;22.97;;;;;;;0.13;96.78;99915.31;5010855;28;20425;-75
2021/01/26 07:44:31;;;;;;;33.20;24.93;;;;;;;0.13;97.36;99929.56;5010852;28;20415;-74
2021/01/26 07:47:04;;;;;;;31.33;22.73;;;;;;;0.14;96.75;99935.75;5010491;28;20485;-75
2021/01/26 07:49:57;;;;;;;32.73;23.17;;;;;;;0.11;96.81;99939.75;5010707;28;20508;-75
2021/01/26 07:52:25;;;;;;;39.80;26.50;;;;;;;0.10;96.82;99951.56;5010413;28;20427;-74
2021/01/26 07:55:00;;;;;;;38.67;24.13;;;;;;;0.12;96.63;99962.06;5010835;28;20431;-75
2021/01/26 07:57:33;;;;;;;37.00;25.87;;;;;;;0.13;96.80;99967.16;5010435;28;20419;-75
2021/01/26 07:59:59;;;;;;;39.47;27.13;;;;;;;0.14;96.85;99968.78;5010726;28;20815;-75
2021/01/26 08:02:29;;;;;;;47.60;29.30;;;;;;;0.15;97.14;99973.13;5010670;28;20417;-75
2021/01/26 08:04:55;;;;;;;44.80;26.80;;;;;;;0.17;96.74;99970.19;5010597;28;20264;-74
2021/01/26 08:07:28;;;;;;;45.47;24.37;;;;;;;0.16;96.84;99976.63;5012695;28;20510;-74
2021/01/26 08:09:56;;;;;;;39.50;22.57;;;;;;;0.15;97.13;99977.69;5013274;28;20652;-75
2021/01/26 08:12:43;;;;;;;58.80;31.17;;;;;;;0.12;96.66;99983.53;5013585;28;20426;-74
2021/01/26 08:15:12;;;;;;;51.63;26.73;;;;;;;0.12;97.29;99986.22;5014488;28;20801;-73
2021/01/26 08:17:38;;;;;;;64.57;33.10;;;;;;;0.14;97.11;99990.28;5014046;28;20434;-74
2021/01/26 08:20:30;;;;;;;61.57;30.50;;;;;;;0.14;96.77;99992.97;5014468;28;20419;-75
2021/01/26 08:23:00;;;;;;;72.30;34.73;;;;;;;0.13;96.84;99995.91;5014110;28;20179;-74
2021/01/26 08:25:35;;;;;;;50.80;25.90;;;;;;;0.13;97.37;99994.03;5014211;28;20419;-74
2021/01/26 08:28:05;;;;;;;55.93;25.43;;;;;;;0.12;97.06;100000.47;5013651;28;20814;-74
2021/01/26 08:30:49;;;;;;;62.87;31.97;;;;;;;0.11;97.46;100000.72;5018589;28;20469;-75
2021/01/26 08:33:25;;;;;;;65.77;31.27;;;;;;;0.06;97.25;100011.41;5033824;28;20906;-75
2021/01/26 08:36:28;;;;;;;19.37;11.93;;;;;;;0.07;97.96;100013.03;5033626;28;20407;-76
2021/01/26 08:39:04;;;;;;;48.20;25.10;;;;;;;0.06;97.44;100019.47;5032377;28;20922;-73
2021/01/26 08:41:51;;;;;;;64.07;31.13;;;;;;;0.05;97.54;100031.28;5032511;28;20418;-74
2021/01/26 08:44:22;;;;;;;66.63;30.90;;;;;;;0.05;97.13;100028.59;5033433;28;20774;-72
2021/01/26 08:46:50;;;;;;;52.67;25.90;;;;;;;0.11;97.89;100033.75;5032722;28;20501;-73
2021/01/26 08:49:34;;;;;;;39.00;20.97;;;;;;;0.15;97.39;100044.84;5033152;28;20419;-72
2021/01/26 08:52:21;;;;;;;44.47;24.97;;;;;;;0.16;97.32;100059.88;5033297;28;20425;-72
2021/01/26 08:54:49;;;;;;;54.00;29.70;;;;;;;0.17;97.30;100059.63;5031926;28;20445;-72
2021/01/26 08:57:40;;;;;;;60.57;29.40;;;;;;;0.18;97.44;100068.50;5032787;28;20418;-72
2021/01/26 09:00:14;;;;;;;26.83;17.20;;;;;;;0.17;97.22;100074.94;5032061;28;20436;-72
2021/01/26 09:02:42;;;;;;;52.30;26.57;;;;;;;0.17;96.75;100086.47;5033325;28;20910;-72
2021/01/26 09:05:10;;;;;;;59.30;29.63;;;;;;;0.20;96.82;100093.22;5033101;28;20427;-72
2021/01/26 09:07:53;;;;;;;35.97;21.73;;;;;;;0.19;97.05;100094.28;5033198;28;20487;-72
2021/01/26 09:10:30;;;;;;;53.23;26.53;;;;;;;0.18;96.83;100098.84;5033173;28;20527;-72
2021/01/26 09:13:08;;;;;;;59.83;29.20;;;;;;;0.17;96.64;100107.97;5032069;28;20422;-73
2021/01/26 09:15:37;;;;;;;57.50;27.03;;;;;;;0.18;96.75;100119.53;5033062;28;20914;-72
2021/01/26 09:18:02;;;;;;;66.33;31.93;;;;;;;0.17;96.82;100113.34;5021279;28;20446;-74
2021/01/26 09:20:31;;;;;;;36.73;18.77;;;;;;;0.14;96.58;100123.75;5014259;28;20874;-73
2021/01/26 09:23:03;;;;;;;49.43;22.33;;;;;;;0.13;97.02;100122.13;5013208;28;20235;-72
2021/01/26 09:25:37;;;;;;;55.83;25.03;;;;;;;0.15;97.02;100130.78;5011609;28;20435;-72
2021/01/26 09:28:04;;;;;;;42.03;21.13;;;;;;;0.16;96.97;100132.41;5016447;28;20415;-73
2021/01/26 09:30:30;;;;;;;64.67;30.20;;;;;;;0.16;97.12;100135.91;5019330;28;20492;-72
2021/01/26 09:32:56;;;;;;;83.30;33.03;;;;;;;0.20;97.20;100139.69;5032703;28;20780;-72
2021/01/26 09:35:31;;;;;;;53.27;25.07;;;;;;;0.23;97.42;100138.38;5032622;28;20422;-73
2021/01/26 09:38:05;;;;;;;80.87;34.00;;;;;;;0.24;97.55;100142.69;5022684;28;20779;-72
2021/01/26 09:40:31;;;;;;;77.87;34.73;;;;;;;0.26;96.84;100145.94;5011610;28;20428;-72
2021/01/26 09:43:16;;;;;;;79.40;32.93;;;;;;;0.28;97.38;100131.19;5012501;28;20431;-73
2021/01/26 09:45:42;;;;;;;84.53;37.90;;;;;;;0.29;96.97;100138.19;5031284;28;20271;-73
2021/01/26 09:48:13;;;;;;;45.50;19.50;;;;;;;0.28;97.07;100141.13;5030529;28;20823;-73
2021/01/26 09:50:39;;;;;;;86.00;36.57;;;;;;;0.28;97.26;100151.84;5031994;28;20291;-73
2021/01/26 09:53:05;;;;;;;87.70;35.27;;;;;;;0.26;96.92;100159.38;5031993;28;20428;-73
2021/01/26 09:55:31;;;;;;;54.90;23.70;;;;;;;0.20;96.72;100169.25;5032124;28;20635;-73
2021/01/26 09:57:57;;;;;;;82.03;32.67;;;;;;;0.20;97.34;100165.75;5030137;28;20426;-73
2021/01/26 10:00:25;;;;;;;80.27;31.80;;;;;;;0.24;97.31;100169.56;5030582;28;20174;-73
2021/01/26 10:02:54;;;;;;;75.40;32.17;;;;;;;0.23;97.56;100176.78;5031744;28;20419;-72
2021/01/26 10:05:22;;;;;;;97.90;36.43;;;;;;;0.20;97.31;100182.69;5031693;28;20425;-73
2021/01/26 10:08:10;;;;;;;89.47;32.60;;;;;;;0.18;97.78;100184.81;5029869;28;20524;-73
2021/01/26 10:10:36;;;;;;;72.20;28.27;;;;;;;0.16;97.88;100192.31;5032295;28;20477;-73
2021/01/26 10:13:24;;;;;;;62.70;28.60;;;;;;;0.17;97.71;100198.47;5037720;28;20783;-73
2021/01/26 10:15:50;;;;;;;98.93;36.80;;;;;;;0.20;97.91;100198.78;5031709;28;20430;-73
2021/01/26 10:18:18;;;;;;;91.63;31.67;;;;;;;0.22;97.84;100203.91;5030930;28;20422;-73
2021/01/26 10:20:47;;;;;;;110.43;39.53;;;;;;;0.23;98.00;100205.53;5031559;28;20176;-73
2021/01/26 10:23:33;;;;;;;109.47;40.97;;;;;;;0.19;98.14;100207.91;5031410;28;20585;-73
2021/01/26 10:26:07;;;;;;;104.77;37.30;;;;;;;0.20;97.74;100208.72;5031315;28;20426;-73
2021/01/26 10:28:33;;;;;;;68.20;24.70;;;;;;;0.21;97.93;100221.09;5028978;28;20434;-74
2021/01/26 10:30:58;;;;;;;117.60;43.47;;;;;;;0.22;97.67;100225.41;5016628;28;20486;-73
2021/01/26 10:33:32;;;;;;;53.37;22.23;;;;;;;0.23;97.60;100224.34;5011767;28;20275;-72
2021/01/26 10:36:17;;;;;;;119.97;43.37;;;;;;;0.23;97.60;100222.47;5019804;28;20184;-72
2021/01/26 10:38:44;;;;;;;107.63;37.50;;;;;;;0.28;97.66;100232.44;5031279;28;20429;-73
2021/01/26 10:41:32;;;;;;;107.73;39.87;;;;;;;0.28;97.57;100235.13;5030007;28;20854;-73
2021/01/26 10:44:01;;;;;;;105.77;43.60;;;;;;;0.31;98.01;100236.53;5031198;28;20418;-73
2021/01/26 10:46:32;;;;;;;100.23;40.83;;;;;;;0.29;97.83;100242.97;5031067;28;20688;-73
2021/01/26 10:49:31;;;;;;;102.40;41.70;;;;;;;0.29;97.66;100240.28;5031152;28;20450;-73
2021/01/26 10:52:07;;;;;;;91.70;37.20;;;;;;;0.29;97.05;100248.34;5019140;28;20454;-73
2021/01/26 10:54:35;;;;;;;71.77;28.20;;;;;;;0.31;97.16;100252.66;5011387;28;20461;-73
2021/01/26 10:57:01;;;;;;;66.60;27.47;;;;;;;0.29;97.12;100248.34;5007921;28;20435;-73
2021/01/26 10:59:26;;;;;;;94.13;36.37;;;;;;;0.29;97.41;100256.41;5016626;28;20485;-72
2021/01/26 11:01:52;;;;;;;44.10;19.50;;;;;;;0.27;97.04;100257.69;5030777;28;20271;-72
2021/01/26 11:04:18;;;;;;;84.37;32.30;;;;;;;0.24;96.85;100264.38;5030815;28;20180;-72
2021/01/26 11:06:44;;;;;;;81.83;32.47;;;;;;;0.25;97.33;100275.94;5030483;28;20513;-72
2021/01/26 11:09:12;;;;;;;107.33;42.50;;;;;;;0.27;97.39;100273.81;5031171;28;20502;-73
2021/01/26 11:11:38;;;;;;;100.20;38.00;;;;;;;0.30;97.25;100284.09;5030236;28;20281;-72
2021/01/26 11:14:05;;;;;;;102.60;41.73;;;;;;;0.34;96.98;100282.53;5029511;28;20422;-72
2021/01/26 11:16:31;;;;;;;84.60;34.37;;;;;;;0.40;96.81;100281.53;5030063;28;20176;-73
2021/01/26 11:18:59;;;;;;;97.57;41.50;;;;;;;0.41;97.22;100277.78;5012528;28;20431;-73
2021/01/26 11:21:24;;;;;;;83.93;35.07;;;;;;;0.42;96.92;100279.41;5011144;28;20838;-73
2021/01/26 11:23:49;;;;;;;88.60;38.40;;;;;;;0.46;96.86;100282.41;5010785;28;20423;-73
2021/01/26 11:26:17;;;;;;;92.57;37.87;;;;;;;0.45;96.37;100289.66;5010370;28;20179;-73
2021/01/26 11:28:46;;;;;;;40.77;19.27;;;;;;;0.43;96.58;100293.66;5010724;28;20279;-72
2021/01/26 11:31:13;;;;;;;75.77;33.17;;;;;;;0.42;96.83;100294.72;5010671;28;20466;-73
2021/01/26 11:33:39;;;;;;;54.47;24.30;;;;;;;0.39;96.37;100300.59;5010722;28;20899;-73
2021/01/26 11:36:05;;;;;;;40.47;19.33;;;;;;;0.37;96.01;100295.47;5010411;28;20511;-74
2021/01/26 11:38:31;;;;;;;58.90;24.13;;;;;;;0.32;96.44;100299.97;5010402;28;20647;-73
2021/01/26 11:40:57;;;;;;;59.90;25.10;;;;;;;0.31;96.44;100296.47;5010040;28;20420;-73
2021/01/26 11:43:23;;;;;;;44.67;21.53;;;;;;;0.29;95.88;100309.34;5010536;28;20709;-73
2021/01/26 11:45:48;;;;;;;108.47;42.07;;;;;;;0.29;96.54;100303.97;5010462;28;20195;-74
2021/01/26 11:48:14;;;;;;;93.30;34.53;;;;;;;0.32;96.20;100308.84;5010317;28;20184;-74
2021/01/26 11:50:40;;;;;;;105.17;39.40;;;;;;;0.36;96.74;100309.16;5010905;28;20346;-74
2021/01/26 11:53:11;;;;;;;90.30;37.80;;;;;;;0.35;96.64;100297.59;5010734;28;20226;-73